createdAt,value
2019-03-24T00:01:25.573Z,96851.84
2019-03-24T00:03:53.507Z,96858.28
2019-03-24T00:06:21.777Z,96852.93
2019-03-24T00:08:49.397Z,96853.00
2019-03-24T00:11:16.655Z,96859.30
2019-03-24T00:13:43.845Z,96855.31
2019-03-24T00:16:13.070Z,96854.89
2019-03-24T00:18:42.521Z,96856.95
2019-03-24T00:21:09.725Z,96853.92
2019-03-24T00:23:44.403Z,96853.71
2019-03-24T00:26:14.010Z,96851.03
2019-03-24T00:28:41.291Z,96844.45
2019-03-24T00:31:08.342Z,96846.66
2019-03-24T00:33:41.451Z,96838.91
2019-03-24T00:36:08.501Z,96839.44
2019-03-24T00:38:35.538Z,96832.38
2019-03-24T00:41:02.971Z,96830.37
2019-03-24T00:43:30.015Z,96826.39
2019-03-24T00:45:57.151Z,96830.43
2019-03-24T00:48:24.190Z,96821.03
2019-03-24T00:50:52.320Z,96823.20
2019-03-24T00:53:19.625Z,96824.90
2019-03-24T00:55:46.683Z,96822.22
2019-03-24T00:58:13.719Z,96832.19
2019-03-24T01:00:40.759Z,96823.50
2019-03-24T01:03:07.819Z,96827.19
2019-03-24T01:05:34.863Z,96820.13
2019-03-24T01:08:01.913Z,96812.11
2019-03-24T01:10:29.037Z,96818.73
2019-03-24T01:12:56.428Z,96819.48
2019-03-24T01:15:23.786Z,96809.13
2019-03-24T01:17:50.837Z,96805.13
2019-03-24T01:20:17.879Z,96801.97
2019-03-24T01:22:44.932Z,96809.55
2019-03-24T01:25:12.227Z,96801.79
2019-03-24T01:27:39.277Z,96806.08
2019-03-24T01:30:06.312Z,96797.23
2019-03-24T01:32:33.726Z,96796.06
2019-03-24T01:35:00.768Z,96797.28
2019-03-24T01:37:28.087Z,96795.31
2019-03-24T01:39:55.395Z,96787.20
2019-03-24T01:42:22.449Z,96784.13
2019-03-24T01:44:49.782Z,96789.80
2019-03-24T01:47:17.135Z,96784.61
2019-03-24T01:49:44.508Z,96783.56
2019-03-24T01:52:11.565Z,96783.00
2019-03-24T01:54:38.608Z,96784.42
2019-03-24T01:57:05.665Z,96775.81
2019-03-24T01:59:32.705Z,96780.78
2019-03-24T02:01:59.767Z,96777.02
2019-03-24T02:04:27.087Z,96771.25
2019-03-24T02:06:54.459Z,96771.16
2019-03-24T02:09:21.504Z,96768.91
2019-03-24T02:11:50.794Z,96773.88
2019-03-24T02:14:17.287Z,96769.41
2019-03-24T02:16:44.322Z,96763.05
2019-03-24T02:19:11.634Z,96761.97
2019-03-24T02:21:38.923Z,96764.70
2019-03-24T02:24:06.218Z,96754.91
2019-03-24T02:26:33.328Z,96751.97
2019-03-24T02:29:00.385Z,96753.52
2019-03-24T02:31:27.429Z,96757.19
2019-03-24T02:33:54.733Z,96753.64
2019-03-24T02:36:22.092Z,96756.72
2019-03-24T02:38:49.327Z,96751.77
2019-03-24T02:41:16.367Z,96759.72
2019-03-24T02:43:43.420Z,96760.31
2019-03-24T02:46:23.509Z,96750.66
2019-03-24T02:48:39.480Z,96752.44
2019-03-24T02:51:06.790Z,96754.33
2019-03-24T02:53:33.826Z,96750.22
2019-03-24T02:56:00.864Z,96750.94
2019-03-24T02:58:28.394Z,96749.67
2019-03-24T03:00:55.685Z,96754.63
2019-03-24T03:03:23.034Z,96742.61
2019-03-24T03:05:50.420Z,96743.80
2019-03-24T03:08:17.437Z,96752.31
2019-03-24T03:10:44.487Z,96750.44
2019-03-24T03:13:11.539Z,96747.49
2019-03-24T03:15:38.583Z,96745.50
2019-03-24T03:18:05.902Z,96751.86
2019-03-24T03:20:32.949Z,96752.93
2019-03-24T03:23:00.323Z,96751.53
2019-03-24T03:25:27.597Z,96749.66
2019-03-24T03:27:54.642Z,96752.97
2019-03-24T03:30:21.702Z,96759.11
2019-03-24T03:32:49.018Z,96755.02
2019-03-24T03:35:16.370Z,96753.14
2019-03-24T03:37:43.414Z,96752.44
2019-03-24T03:40:10.470Z,96747.50
2019-03-24T03:42:37.515Z,96749.16
2019-03-24T03:45:04.829Z,96745.86
2019-03-24T03:47:32.234Z,96746.58
2019-03-24T03:49:59.562Z,96740.57
2019-03-24T03:52:26.930Z,96739.17
2019-03-24T03:54:53.980Z,96738.94
2019-03-24T03:57:21.338Z,96733.41
2019-03-24T03:59:48.632Z,96738.36
2019-03-24T04:02:16.065Z,96731.30
2019-03-24T04:04:43.372Z,96731.66
2019-03-24T04:07:10.756Z,96721.66
2019-03-24T04:09:37.814Z,96726.25
2019-03-24T04:12:04.869Z,96729.09
2019-03-24T04:14:32.204Z,96730.66
2019-03-24T04:17:07.038Z,96732.19
2019-03-24T04:19:28.244Z,96731.02
2019-03-24T04:21:55.549Z,96726.55
2019-03-24T04:24:22.604Z,96725.72
2019-03-24T04:26:49.641Z,96719.36
2019-03-24T04:29:17.053Z,96720.07
2019-03-24T04:31:44.403Z,96716.42
2019-03-24T04:34:11.755Z,96719.95
2019-03-24T04:36:39.116Z,96715.95
2019-03-24T04:39:06.471Z,96714.30
2019-03-24T04:41:33.821Z,96711.84
2019-03-24T04:44:00.878Z,96714.42
2019-03-24T04:46:28.226Z,96710.42
2019-03-24T04:48:55.581Z,96713.38
2019-03-24T04:51:23.611Z,96714.55
2019-03-24T04:53:51.010Z,96710.08
2019-03-24T04:56:18.364Z,96718.44
2019-03-24T04:58:45.407Z,96715.73
2019-03-24T05:01:12.789Z,96710.67
2019-03-24T05:03:39.828Z,96716.20
2019-03-24T05:06:07.167Z,96723.62
2019-03-24T05:08:34.213Z,96725.73
2019-03-24T05:11:01.594Z,96728.80
2019-03-24T05:13:28.933Z,96731.27
2019-03-24T05:15:56.279Z,96730.33
2019-03-24T05:18:23.326Z,96729.03
2019-03-24T05:20:50.400Z,96725.73
2019-03-24T05:23:17.742Z,96721.27
2019-03-24T05:25:44.804Z,96716.31
2019-03-24T05:28:11.862Z,96722.79
2019-03-24T05:30:40.308Z,96728.08
2019-03-24T05:33:07.688Z,96725.83
2019-03-24T05:35:35.008Z,96725.78
2019-03-24T05:38:03.298Z,96727.28
2019-03-24T05:40:30.399Z,96727.59
2019-03-24T05:42:58.825Z,96735.14
2019-03-24T05:45:26.200Z,96731.48
2019-03-24T05:47:53.542Z,96729.73
2019-03-24T05:50:20.603Z,96734.08
2019-03-24T05:52:47.650Z,96731.49
2019-03-24T05:55:15.009Z,96729.42
2019-03-24T05:57:42.348Z,96730.36
2019-03-24T06:00:09.478Z,96728.63
2019-03-24T06:02:36.867Z,96724.89
2019-03-24T06:05:04.205Z,96721.48
2019-03-24T06:07:31.503Z,96719.80
2019-03-24T06:09:58.832Z,96722.58
2019-03-24T06:12:26.188Z,96723.94
2019-03-24T06:14:53.232Z,96720.16
2019-03-24T06:17:20.568Z,96720.09
2019-03-24T06:19:47.854Z,96714.83
2019-03-24T06:22:15.176Z,96711.31
2019-03-24T06:24:42.532Z,96717.92
2019-03-24T06:27:09.892Z,96715.78
2019-03-24T06:29:37.247Z,96718.54
2019-03-24T06:32:04.598Z,96718.17
2019-03-24T06:34:31.681Z,96714.13
2019-03-24T06:36:58.709Z,96708.60
2019-03-24T06:39:26.068Z,96719.95
2019-03-24T06:41:53.404Z,96716.73
2019-03-24T06:44:20.781Z,96710.10
2019-03-24T06:46:48.113Z,96712.92
2019-03-24T06:49:15.468Z,96708.50
2019-03-24T06:51:42.527Z,96709.34
2019-03-24T06:54:09.871Z,96708.55
2019-03-24T06:56:36.930Z,96707.49
2019-03-24T06:59:04.293Z,96704.95
2019-03-24T07:01:31.617Z,96710.94
2019-03-24T07:03:58.965Z,96708.55
2019-03-24T07:06:26.345Z,96710.23
2019-03-24T07:08:53.713Z,96713.55
2019-03-24T07:11:21.054Z,96711.28
2019-03-24T07:13:48.098Z,96709.98
2019-03-24T07:16:15.164Z,96715.63
2019-03-24T07:24:01.749Z,96705.23
2019-03-24T07:26:34.312Z,96703.56
2019-03-24T07:29:02.624Z,96711.34
2019-03-24T07:31:30.888Z,96715.01
2019-03-24T07:34:01.183Z,96717.59
2019-03-24T07:36:29.741Z,96713.59
2019-03-24T07:39:02.952Z,96708.94
2019-03-24T07:41:31.445Z,96707.56
2019-03-24T07:44:01.774Z,96702.95
2019-03-24T07:46:30.462Z,96697.90
2019-03-24T07:49:05.571Z,96703.44
2019-03-24T07:51:37.924Z,96702.64
2019-03-24T07:54:06.402Z,96704.14
2019-03-24T07:59:11.578Z,96699.56
2019-03-24T08:04:31.095Z,96695.93
2019-03-24T08:12:26.340Z,96697.92
2019-03-24T08:17:43.944Z,96696.50
2019-03-24T08:20:13.448Z,96693.62
2019-03-24T08:22:45.562Z,96690.28
2019-03-24T08:25:13.822Z,96692.93
2019-03-24T08:27:44.677Z,96696.90
2019-03-24T08:30:21.227Z,96692.30
2019-03-24T08:32:48.492Z,96690.31
2019-03-24T08:35:15.554Z,96691.50
2019-03-24T08:37:46.588Z,96689.88
2019-03-24T08:45:43.131Z,96690.19
2019-03-24T08:48:15.073Z,96695.64
2019-03-24T08:50:50.046Z,96690.46
2019-03-24T08:53:18.229Z,96686.96
2019-03-24T08:55:55.369Z,96684.13
2019-03-24T08:58:22.613Z,96676.61
2019-03-24T09:00:56.708Z,96671.63
2019-03-24T09:06:05.494Z,96666.09
2019-03-24T09:08:36.665Z,96658.12
2019-03-24T09:11:17.488Z,96658.55
2019-03-24T09:13:44.555Z,96650.22
2019-03-24T09:16:11.602Z,96653.62
2019-03-24T09:18:39.732Z,96658.02
2019-03-24T09:21:06.768Z,96654.08
2019-03-24T09:23:34.082Z,96652.21
2019-03-24T09:26:01.132Z,96643.41
2019-03-24T09:28:28.465Z,96639.78
2019-03-24T09:30:55.527Z,96631.48
2019-03-24T09:33:22.864Z,96630.39
2019-03-24T09:35:50.222Z,96633.84
2019-03-24T09:38:17.277Z,96635.34
2019-03-24T09:40:44.404Z,96639.02
2019-03-24T09:43:11.781Z,96641.41
2019-03-24T09:45:39.130Z,96633.30
2019-03-24T09:48:06.198Z,96630.70
2019-03-24T09:50:33.495Z,96625.48
2019-03-24T09:53:00.553Z,96629.19
2019-03-24T09:55:27.956Z,96618.96
2019-03-24T09:57:55.016Z,96622.12
2019-03-24T10:00:22.376Z,96625.19
2019-03-24T10:02:49.693Z,96614.08
2019-03-24T10:05:17.046Z,96611.63
2019-03-24T10:07:44.098Z,96609.14
2019-03-24T10:10:11.456Z,96618.61
2019-03-24T10:12:38.500Z,96611.33
2019-03-24T10:17:40.919Z,96604.99
2019-03-24T10:20:08.349Z,96600.98
2019-03-24T10:22:35.725Z,96601.78
2019-03-24T10:25:02.784Z,96606.37
2019-03-24T10:27:29.828Z,96600.74
2019-03-24T10:29:57.154Z,96602.50
2019-03-24T10:32:24.527Z,96597.61
2019-03-24T10:34:51.879Z,96602.33
2019-03-24T10:37:19.215Z,96607.64
2019-03-24T10:39:46.283Z,96602.70
2019-03-24T10:42:13.647Z,96601.09
2019-03-24T10:44:40.974Z,96596.05
2019-03-24T10:47:08.333Z,96588.55
2019-03-24T10:49:35.687Z,96591.78
2019-03-24T10:52:02.732Z,96591.12
2019-03-24T10:54:29.797Z,96589.98
2019-03-24T10:56:57.147Z,96589.02
2019-03-24T10:59:24.205Z,96595.15
2019-03-24T11:01:51.259Z,96588.41
2019-03-24T11:04:18.587Z,96588.16
2019-03-24T11:06:46.604Z,96592.31
2019-03-24T11:09:14.040Z,96583.72
2019-03-24T11:11:41.078Z,96587.52
2019-03-24T11:14:08.421Z,96585.64
2019-03-24T11:16:35.711Z,96581.34
2019-03-24T11:19:03.128Z,96575.98
2019-03-24T11:21:30.504Z,96568.98
2019-03-24T11:23:57.835Z,96573.00
2019-03-24T11:26:25.217Z,96574.91
2019-03-24T11:28:52.266Z,96567.08
2019-03-24T11:31:20.844Z,96569.45
2019-03-24T11:33:48.156Z,96567.81
2019-03-24T11:36:15.235Z,96571.45
2019-03-24T11:38:42.280Z,96563.44
2019-03-24T11:41:09.343Z,96565.89
2019-03-24T11:43:36.680Z,96561.42
2019-03-24T11:46:05.406Z,96560.73
2019-03-24T11:48:33.949Z,96560.78
2019-03-24T11:51:01.013Z,96555.92
2019-03-24T11:53:28.329Z,96553.25
2019-03-24T11:55:55.729Z,96548.84
2019-03-24T11:58:22.790Z,96546.81
2019-03-24T12:00:50.126Z,96544.95
2019-03-24T12:03:17.245Z,96542.13
2019-03-24T12:05:44.560Z,96545.23
2019-03-24T12:08:11.891Z,96534.21
2019-03-24T12:10:38.954Z,96540.70
2019-03-24T12:13:06.292Z,96525.63
2019-03-24T12:15:33.627Z,96524.97
2019-03-24T12:18:00.930Z,96524.55
2019-03-24T12:20:29.068Z,96522.71
2019-03-24T12:22:56.102Z,96526.97
2019-03-24T12:25:23.166Z,96521.34
2019-03-24T12:27:50.213Z,96509.51
2019-03-24T12:30:17.536Z,96510.16
2019-03-24T12:32:44.593Z,96498.23
2019-03-24T12:35:11.985Z,96505.79
2019-03-24T12:37:39.021Z,96502.06
2019-03-24T12:40:06.333Z,96500.68
2019-03-24T12:42:33.720Z,96494.94
2019-03-24T12:45:01.089Z,96490.23
2019-03-24T12:47:28.137Z,96482.37
2019-03-24T12:49:55.186Z,96483.64
2019-03-24T12:52:22.536Z,96480.15
2019-03-24T12:54:49.877Z,96473.26
2019-03-24T12:57:17.231Z,96476.64
2019-03-24T12:59:44.585Z,96465.89
2019-03-24T13:02:11.792Z,96477.05
2019-03-24T13:04:39.197Z,96468.58
2019-03-24T13:07:06.503Z,96467.36
2019-03-24T13:09:33.854Z,96466.42
2019-03-24T13:12:00.868Z,96463.38
2019-03-24T13:14:30.662Z,96460.81
2019-03-24T13:16:57.353Z,96449.41
2019-03-24T13:19:40.869Z,96452.16
2019-03-24T13:22:14.105Z,96443.86
2019-03-24T13:24:50.630Z,96443.07
2019-03-24T13:38:16.607Z,96447.13
2019-03-24T13:40:50.636Z,96442.41
2019-03-24T13:43:17.916Z,96449.45
2019-03-24T13:45:57.475Z,96439.44
2019-03-24T13:48:24.983Z,96446.00
2019-03-24T13:50:52.147Z,96437.16
2019-03-24T13:53:22.792Z,96440.56
2019-03-24T13:56:01.259Z,96442.02
2019-03-24T13:58:28.572Z,96431.97
2019-03-24T14:00:55.977Z,96429.27
2019-03-24T14:03:23.326Z,96431.45
2019-03-24T14:05:50.380Z,96425.77
2019-03-24T14:08:17.744Z,96426.20
2019-03-24T14:10:45.084Z,96425.64
2019-03-24T14:13:12.462Z,96424.73
2019-03-24T14:15:39.506Z,96423.90
2019-03-24T14:18:06.840Z,96427.97
2019-03-24T14:20:42.757Z,96426.52
2019-03-24T14:23:03.007Z,96435.28
2019-03-24T14:25:31.364Z,96436.25
2019-03-24T14:27:58.429Z,96438.81
2019-03-24T14:30:25.770Z,96435.78
2019-03-24T14:32:53.077Z,96435.90
2019-03-24T14:35:20.482Z,96442.09
2019-03-24T14:37:47.832Z,96450.80
2019-03-24T14:40:14.887Z,96443.98
2019-03-24T14:42:42.257Z,96436.58
2019-03-24T14:45:09.598Z,96447.50
2019-03-24T14:47:36.662Z,96446.28
2019-03-24T14:50:03.708Z,96446.03
2019-03-24T14:52:30.927Z,96446.17
2019-03-24T14:54:58.297Z,96445.33
2019-03-24T14:57:25.363Z,96449.65
2019-03-24T14:59:52.716Z,96450.41
2019-03-24T15:02:20.074Z,96447.55
2019-03-24T15:04:47.407Z,96447.55
2019-03-24T15:07:14.764Z,96443.55
2019-03-24T15:09:42.116Z,96440.80
2019-03-24T15:12:09.168Z,96444.95
2019-03-24T15:14:36.473Z,96440.86
2019-03-24T15:17:03.775Z,96435.70
2019-03-24T15:19:32.154Z,96439.48
2019-03-24T15:21:59.207Z,96446.58
2019-03-24T15:24:26.556Z,96450.03
2019-03-24T15:26:53.609Z,96452.17
2019-03-24T15:29:20.933Z,96451.39
2019-03-24T15:31:48.313Z,96453.33
2019-03-24T15:34:15.384Z,96450.91
2019-03-24T15:36:42.426Z,96450.59
2019-03-24T15:39:09.772Z,96450.56
2019-03-24T15:41:37.120Z,96453.64
2019-03-24T15:44:04.178Z,96456.17
2019-03-24T15:46:31.544Z,96454.29
2019-03-24T15:48:58.602Z,96460.94
2019-03-24T15:51:25.931Z,96472.06
2019-03-24T15:53:53.261Z,96480.73
2019-03-24T15:56:20.315Z,96483.41
2019-03-24T15:58:47.694Z,96485.86
2019-03-24T16:01:14.983Z,96482.23
2019-03-24T16:03:42.621Z,96485.56
2019-03-24T16:06:09.666Z,96491.20
2019-03-24T16:08:37.003Z,96487.86
2019-03-24T16:11:04.055Z,96485.57
2019-03-24T16:13:31.422Z,96488.75
2019-03-24T16:15:58.715Z,96491.08
2019-03-24T16:18:25.853Z,96494.14
2019-03-24T16:20:53.178Z,96497.60
2019-03-24T16:23:20.488Z,96499.53
2019-03-24T16:25:47.535Z,96497.61
2019-03-24T16:28:14.942Z,96497.21
2019-03-24T16:30:41.994Z,96500.63
2019-03-24T16:33:09.333Z,96502.89
2019-03-24T16:35:36.624Z,96496.22
2019-03-24T16:38:03.951Z,96495.48
2019-03-24T16:40:31.108Z,96492.68
2019-03-24T16:42:58.159Z,96498.84
2019-03-24T16:45:25.485Z,96499.24
2019-03-24T16:47:52.529Z,96505.66
2019-03-24T16:50:19.606Z,96508.61
2019-03-24T16:52:46.651Z,96508.55
2019-03-24T16:55:13.706Z,96497.60
2019-03-24T16:57:41.049Z,96494.61
2019-03-24T17:00:08.392Z,96494.97
2019-03-24T17:02:35.507Z,96505.78
2019-03-24T17:05:02.572Z,96505.78
2019-03-24T17:07:29.966Z,96517.73
2019-03-24T17:10:00.726Z,96509.70
2019-03-24T17:12:28.048Z,96514.94
2019-03-24T17:14:55.110Z,96520.02
2019-03-24T17:17:22.435Z,96518.71
2019-03-24T17:19:49.494Z,96517.89
2019-03-24T17:22:16.838Z,96515.59
2019-03-24T17:24:43.913Z,96517.06
2019-03-24T17:27:10.949Z,96521.65
2019-03-24T17:29:38.297Z,96513.47
2019-03-24T17:32:05.335Z,96514.62
2019-03-24T17:34:32.398Z,96511.05
2019-03-24T17:36:59.449Z,96523.80
2019-03-24T17:39:26.505Z,96518.22
2019-03-24T17:41:53.551Z,96518.87
2019-03-24T17:44:20.878Z,96524.90
2019-03-24T17:46:48.255Z,96524.34
2019-03-24T17:49:15.318Z,96518.09
2019-03-24T17:51:42.641Z,96521.81
2019-03-24T17:54:09.687Z,96520.48
2019-03-24T17:56:36.761Z,96533.03
2019-03-24T17:59:03.797Z,96532.98
2019-03-24T18:01:31.927Z,96531.15
2019-03-24T18:04:00.251Z,96535.99
2019-03-24T18:06:27.553Z,96541.98
2019-03-24T18:08:55.969Z,96532.03
2019-03-24T18:11:24.100Z,96535.46
2019-03-24T18:13:51.515Z,96533.48
2019-03-24T18:16:18.871Z,96539.35
2019-03-24T18:18:45.916Z,96541.48
2019-03-24T18:21:12.975Z,96549.48
2019-03-24T18:23:40.337Z,96542.96
2019-03-24T18:33:55.989Z,96554.80
2019-03-24T18:36:23.268Z,96556.72
2019-03-24T18:38:50.497Z,96559.81
2019-03-24T18:41:17.571Z,96559.51
2019-03-24T18:44:01.880Z,96563.27
2019-03-24T18:46:31.136Z,96565.91
2019-03-24T18:49:08.465Z,96563.97
2019-03-24T18:54:12.983Z,96563.64
2019-03-24T18:56:40.536Z,96566.55
2019-03-24T18:59:09.035Z,96563.09
2019-03-24T19:01:41.304Z,96564.17
2019-03-24T19:04:10.764Z,96567.08
2019-03-24T19:06:38.357Z,96562.95
2019-03-24T19:11:59.432Z,96557.13
2019-03-24T19:17:11.967Z,96567.78
2019-03-24T19:19:39.895Z,96563.45
2019-03-24T19:22:10.527Z,96563.07
2019-03-24T19:24:38.256Z,96564.81
2019-03-24T19:27:05.585Z,96555.65
2019-03-24T19:29:35.239Z,96553.33
2019-03-24T19:32:03.461Z,96549.72
2019-03-24T19:34:31.404Z,96548.86
2019-03-24T19:42:19.489Z,96552.48
2019-03-24T19:44:46.535Z,96549.48
2019-03-24T19:47:14.171Z,96548.95
2019-03-24T19:49:45.845Z,96558.52
2019-03-24T19:52:17.375Z,96552.44
2019-03-24T19:54:45.161Z,96553.34
2019-03-24T19:59:55.420Z,96549.70
2019-03-24T20:04:58.526Z,96548.36
2019-03-24T20:10:12.960Z,96540.37
2019-03-24T20:12:42.348Z,96533.95
2019-03-24T20:15:10.504Z,96534.00
2019-03-24T20:20:12.361Z,96531.78
2019-03-24T20:25:14.894Z,96533.59
2019-03-24T20:30:23.823Z,96531.48
2019-03-24T20:35:28.172Z,96533.14
2019-03-24T20:37:55.807Z,96531.87
2019-03-24T20:40:32.777Z,96526.20
2019-03-24T20:42:59.822Z,96525.27
2019-03-24T20:45:27.502Z,96518.30
2019-03-24T20:47:54.781Z,96517.81
2019-03-24T20:50:22.017Z,96519.63
2019-03-24T20:55:34.357Z,96523.09
2019-03-24T20:58:01.557Z,96525.41
2019-03-24T21:00:32.409Z,96521.67
2019-03-24T21:03:03.640Z,96515.63
2019-03-24T21:05:49.241Z,96507.66
2019-03-24T21:08:16.706Z,96502.77
2019-03-24T21:10:43.990Z,96505.86
2019-03-24T21:13:15.839Z,96513.69
2019-03-24T21:15:55.155Z,96501.31
2019-03-24T21:18:27.046Z,96503.28
2019-03-24T21:20:55.291Z,96505.89
2019-03-24T21:23:29.762Z,96503.28
2019-03-24T21:25:56.865Z,96511.30
2019-03-24T21:28:23.930Z,96500.85
2019-03-24T21:30:50.969Z,96507.86
2019-03-24T21:33:18.287Z,96500.19
2019-03-24T21:35:45.760Z,96507.20
2019-03-24T21:38:13.099Z,96497.55
2019-03-24T21:40:40.139Z,96504.89
2019-03-24T21:43:07.506Z,96505.86
2019-03-24T21:45:34.860Z,96510.90
2019-03-24T21:48:01.919Z,96508.59
2019-03-24T21:50:28.968Z,96507.14
2019-03-24T21:52:56.306Z,96496.85
2019-03-24T21:55:23.354Z,96502.55
2019-03-24T21:57:57.383Z,96503.22
2019-03-24T22:00:20.124Z,96502.55
2019-03-24T22:02:47.595Z,96503.19
2019-03-24T22:05:14.929Z,96504.47
2019-03-24T22:07:42.056Z,96500.06
2019-03-24T22:10:09.435Z,96502.01
2019-03-24T22:12:36.802Z,96505.73
2019-03-24T22:15:03.848Z,96502.95
2019-03-24T22:17:30.905Z,96497.88
2019-03-24T22:19:58.190Z,96491.66
2019-03-24T22:22:25.594Z,96495.23
2019-03-24T22:24:53.364Z,96492.00
2019-03-24T22:27:20.737Z,96490.36
2019-03-24T22:29:47.792Z,96499.64
2019-03-24T22:32:14.837Z,96495.20
2019-03-24T22:34:41.891Z,96489.17
2019-03-24T22:37:15.858Z,96489.66
2019-03-24T22:39:38.227Z,96489.95
2019-03-24T22:42:05.510Z,96483.73
2019-03-24T22:44:32.842Z,96483.06
2019-03-24T22:47:00.179Z,96482.70
2019-03-24T22:49:27.541Z,96481.06
2019-03-24T22:52:06.578Z,96481.88
2019-03-24T22:54:23.974Z,96480.24
2019-03-24T22:56:51.113Z,96482.84
2019-03-24T22:59:18.154Z,96476.96
2019-03-24T23:01:45.526Z,96480.05
2019-03-24T23:04:12.889Z,96483.48
2019-03-24T23:06:40.241Z,96480.54
2019-03-24T23:09:07.617Z,96478.08
2019-03-24T23:11:36.116Z,96479.83
2019-03-24T23:14:03.450Z,96469.03
2019-03-24T23:16:30.490Z,96476.19
2019-03-24T23:18:57.837Z,96469.33
2019-03-24T23:21:25.193Z,96470.63
2019-03-24T23:23:52.500Z,96469.78
2019-03-24T23:26:19.539Z,96460.66
2019-03-24T23:28:46.949Z,96465.87
2019-03-24T23:31:14.305Z,96457.37
2019-03-24T23:33:41.675Z,96460.13
2019-03-24T23:36:08.723Z,96452.95
2019-03-24T23:38:35.780Z,96453.28
2019-03-24T23:41:02.895Z,96450.34
2019-03-24T23:43:30.258Z,96447.06
2019-03-24T23:45:57.366Z,96438.42
2019-03-24T23:48:24.769Z,96439.02
2019-03-24T23:50:52.125Z,96438.83
2019-03-24T23:53:19.485Z,96436.19
2019-03-24T23:55:46.827Z,96437.45
2019-03-24T23:58:14.212Z,96442.28
